Flor Da Beira — CUBD4 — position and weather

sailwx.info

Track history (hours):
 
Tides and Currents Weather Stations Pressure Air Temp Water Temp Dewpoint Dewpoint Depression Visibility Wind Speed Wind Dir Waves Ship Positions

Flor Da Beira

Last reported at 2017-Oct-20 00:53 UTC. Time now 2017-Oct-20 01:17 UTC.
Position N 37°03' W 008°48'.

Length 23 m.

Type: Fishing. MMSI: 263408350.

Date/timePositionNaut miles runAvg speedWind from/ knotsBaromVisibWave heightAir tempDewpointWater temp
2017-Oct-20 00:53N 37°03' W 008°48'0 0.2
2017-Oct-20 00:27N 37°03' W 008°48'0 0.1
2017-Oct-20 00:00N 37°03' W 008°48'3 0.2
2017-Oct-19 07:12N 37°01' W 008°49'2 8.7
2017-Oct-19 07:01N 37°01' W 008°47'2 3.3
2017-Oct-19 06:30N 37°02' W 008°46'4 7.5
2017-Oct-19 05:59N 37°01' W 008°41'3 5.9
2017-Oct-19 05:30N 37°02' W 008°38'4 8.6
2017-Oct-19 05:01N 37°04' W 008°33'4 7.1
2017-Oct-19 04:30N 37°05' W 008°28'3 5.8
2017-Oct-19 04:00N 37°03' W 008°26'3 6.2
2017-Oct-19 03:30N 37°01' W 008°29'3 6.2
2017-Oct-19 03:01N 37°03' W 008°31'4 7.7
2017-Oct-19 02:30N 37°07' W 008°32'1 1.9
2017-Oct-19 02:01N 37°08' W 008°32'0 0.0
2017-Oct-19 01:30N 37°08' W 008°32'0 0.0
2017-Oct-19 01:01N 37°08' W 008°32'0 0.0
2017-Oct-19 00:31N 37°08' W 008°32'0 0.0
2017-Oct-19 00:01N 37°08' W 008°32'0 0.0
2017-Oct-17 05:09N 37°08' W 008°32'0 0.0
2017-Oct-17 05:00N 37°08' W 008°32'0 0.0
2017-Oct-17 04:28N 37°08' W 008°32'0 0.0
2017-Oct-17 04:00N 37°08' W 008°32'0 0.0
2017-Oct-17 03:16N 37°08' W 008°32'0 0.0
2017-Oct-17 03:00N 37°08' W 008°32'0 0.0
2017-Oct-17 02:30N 37°08' W 008°32'0 0.0
2017-Oct-17 02:00N 37°08' W 008°32'0 0.0
2017-Oct-17 01:30N 37°08' W 008°32'0 0.0
2017-Oct-17 01:00N 37°08' W 008°32'0 0.0
2017-Oct-17 00:30N 37°08' W 008°32'0 0.0
2017-Oct-17 00:00N 37°08' W 008°32'0 0.0
2017-Oct-16 23:30N 37°08' W 008°32'  
2017-Oct-13 09:02N 37°08' W 008°32'0 0.0
2017-Oct-13 09:00N 37°08' W 008°32'0 0.1
2017-Oct-13 08:30N 37°08' W 008°32'3 6.7
2017-Oct-13 08:00N 37°05' W 008°31'510.0
2017-Oct-13 07:29N 36°60' W 008°30'2 3.4
2017-Oct-13 07:00N 36°58' W 008°29'0 0.7
2017-Oct-13 06:26N 36°58' W 008°28'0 0.7
2017-Oct-13 06:00N 36°58' W 008°28'0 0.3
2017-Oct-13 05:23N 36°58' W 008°28'0 0.2
2017-Oct-13 04:57N 36°58' W 008°28'1 1.8
2017-Oct-13 04:29N 36°58' W 008°27'1 1.2
2017-Oct-13 03:59N 36°58' W 008°26'3 5.3
2017-Oct-13 03:30N 36°59' W 008°29'1 1.8
2017-Oct-13 02:51N 36°58' W 008°28'1 2.6
2017-Oct-13 02:17N 36°59' W 008°26'2 5.1
2017-Oct-13 01:57N 36°59' W 008°24'0 0.6
2017-Oct-13 01:29N 36°59' W 008°24'0 0.4
2017-Oct-13 00:57N 36°59' W 008°24'1 2.4
2017-Oct-13 00:27N 36°59' W 008°22'2 3.8
2017-Oct-12 23:50N 36°59' W 008°19'2 6.4
2017-Oct-12 23:27N 36°59' W 008°16'5 6.1
2017-Oct-12 22:39N 36°58' W 008°10'1 8.6
2017-Oct-12 22:29N 36°59' W 008°09'4 8.2
2017-Oct-12 22:01N 37°02' W 008°07'2 0.1
2017-Oct-12 03:10N 37°03' W 008°09'2 9.4
2017-Oct-12 03:00N 37°03' W 008°11'4 9.2
2017-Oct-12 02:30N 37°02' W 008°17'5 9.2
2017-Oct-12 02:00N 37°00' W 008°22'0 0.2
2017-Oct-12 01:29N 37°00' W 008°22'0 0.4
2017-Oct-12 01:00N 37°00' W 008°22'0 0.2
2017-Oct-12 00:21N 37°00' W 008°22'1 2.0
2017-Oct-12 00:00N 37°01' W 008°21'4 7.5
2017-Oct-11 23:30N 37°03' W 008°25'4 7.4
2017-Oct-11 22:59N 37°05' W 008°29'3 6.7
2017-Oct-11 22:30N 37°07' W 008°32'1 1.4
2017-Oct-11 21:59N 37°08' W 008°32'0 0.0
2017-Oct-10 08:50N 37°08' W 008°32'0 0.1
2017-Oct-10 08:30N 37°08' W 008°32'23 8.1
2017-Oct-10 05:41N 37°00' W 008°58'2 9.1
2017-Oct-10 05:31N 37°01' W 008°60'5 9.7
2017-Oct-10 05:00N 37°06' W 008°59'510.1
2017-Oct-10 04:30N 37°11' W 008°57'4 8.8
2017-Oct-10 04:00N 37°14' W 008°54'0 0.6
2017-Oct-10 03:30N 37°15' W 008°54'0 0.2
2017-Oct-10 03:00N 37°15' W 008°54'0 0.2
2017-Oct-10 02:26N 37°15' W 008°54'3 6.6
2017-Oct-10 02:00N 37°12' W 008°56'  
Track history (hours):
 
Tides and Currents Weather Stations Pressure Air Temp Water Temp Dewpoint Dewpoint Depression Visibility Wind Speed Wind Dir Waves Ship Positions

Flor Da Beira

Last reported at 2017-Oct-20 00:53 UTC. Time now 2017-Oct-20 01:17 UTC.
Position N 37°03' W 008°48'.

Length 23 m.

Type: Fishing. MMSI: 263408350.

Date/timePositionNaut miles runAvg speedWind from/ knotsBaromVisibWave heightAir tempDewpointWater temp
2017-Oct-20 00:53N 37°03' W 008°48'0 0.2
2017-Oct-20 00:27N 37°03' W 008°48'0 0.1
2017-Oct-20 00:00N 37°03' W 008°48'3 0.2
2017-Oct-19 07:12N 37°01' W 008°49'2 8.7
2017-Oct-19 07:01N 37°01' W 008°47'2 3.3
2017-Oct-19 06:30N 37°02' W 008°46'4 7.5
2017-Oct-19 05:59N 37°01' W 008°41'3 5.9
2017-Oct-19 05:30N 37°02' W 008°38'4 8.6
2017-Oct-19 05:01N 37°04' W 008°33'4 7.1
2017-Oct-19 04:30N 37°05' W 008°28'3 5.8
2017-Oct-19 04:00N 37°03' W 008°26'3 6.2
2017-Oct-19 03:30N 37°01' W 008°29'3 6.2
2017-Oct-19 03:01N 37°03' W 008°31'4 7.7
2017-Oct-19 02:30N 37°07' W 008°32'1 1.9
2017-Oct-19 02:01N 37°08' W 008°32'0 0.0
2017-Oct-19 01:30N 37°08' W 008°32'0 0.0
2017-Oct-19 01:01N 37°08' W 008°32'0 0.0
2017-Oct-19 00:31N 37°08' W 008°32'0 0.0
2017-Oct-19 00:01N 37°08' W 008°32'0 0.0
2017-Oct-17 05:09N 37°08' W 008°32'0 0.0
2017-Oct-17 05:00N 37°08' W 008°32'0 0.0
2017-Oct-17 04:28N 37°08' W 008°32'0 0.0
2017-Oct-17 04:00N 37°08' W 008°32'0 0.0
2017-Oct-17 03:16N 37°08' W 008°32'0 0.0
2017-Oct-17 03:00N 37°08' W 008°32'0 0.0
2017-Oct-17 02:30N 37°08' W 008°32'0 0.0
2017-Oct-17 02:00N 37°08' W 008°32'0 0.0
2017-Oct-17 01:30N 37°08' W 008°32'0 0.0
2017-Oct-17 01:00N 37°08' W 008°32'0 0.0
2017-Oct-17 00:30N 37°08' W 008°32'0 0.0
2017-Oct-17 00:00N 37°08' W 008°32'0 0.0
2017-Oct-16 23:30N 37°08' W 008°32'  
2017-Oct-13 09:02N 37°08' W 008°32'0 0.0
2017-Oct-13 09:00N 37°08' W 008°32'0 0.1
2017-Oct-13 08:30N 37°08' W 008°32'3 6.7
2017-Oct-13 08:00N 37°05' W 008°31'510.0
2017-Oct-13 07:29N 36°60' W 008°30'2 3.4
2017-Oct-13 07:00N 36°58' W 008°29'0 0.7
2017-Oct-13 06:26N 36°58' W 008°28'0 0.7
2017-Oct-13 06:00N 36°58' W 008°28'0 0.3
2017-Oct-13 05:23N 36°58' W 008°28'0 0.2
2017-Oct-13 04:57N 36°58' W 008°28'1 1.8
2017-Oct-13 04:29N 36°58' W 008°27'1 1.2
2017-Oct-13 03:59N 36°58' W 008°26'3 5.3
2017-Oct-13 03:30N 36°59' W 008°29'1 1.8
2017-Oct-13 02:51N 36°58' W 008°28'1 2.6
2017-Oct-13 02:17N 36°59' W 008°26'2 5.1
2017-Oct-13 01:57N 36°59' W 008°24'0 0.6
2017-Oct-13 01:29N 36°59' W 008°24'0 0.4
2017-Oct-13 00:57N 36°59' W 008°24'1 2.4
2017-Oct-13 00:27N 36°59' W 008°22'2 3.8
2017-Oct-12 23:50N 36°59' W 008°19'2 6.4
2017-Oct-12 23:27N 36°59' W 008°16'5 6.1
2017-Oct-12 22:39N 36°58' W 008°10'1 8.6
2017-Oct-12 22:29N 36°59' W 008°09'4 8.2
2017-Oct-12 22:01N 37°02' W 008°07'2 0.1
2017-Oct-12 03:10N 37°03' W 008°09'2 9.4
2017-Oct-12 03:00N 37°03' W 008°11'4 9.2
2017-Oct-12 02:30N 37°02' W 008°17'5 9.2
2017-Oct-12 02:00N 37°00' W 008°22'0 0.2
2017-Oct-12 01:29N 37°00' W 008°22'0 0.4
2017-Oct-12 01:00N 37°00' W 008°22'0 0.2
2017-Oct-12 00:21N 37°00' W 008°22'1 2.0
2017-Oct-12 00:00N 37°01' W 008°21'4 7.5
2017-Oct-11 23:30N 37°03' W 008°25'4 7.4
2017-Oct-11 22:59N 37°05' W 008°29'3 6.7
2017-Oct-11 22:30N 37°07' W 008°32'1 1.4
2017-Oct-11 21:59N 37°08' W 008°32'0 0.0
2017-Oct-10 08:50N 37°08' W 008°32'0 0.1
2017-Oct-10 08:30N 37°08' W 008°32'23 8.1
2017-Oct-10 05:41N 37°00' W 008°58'2 9.1
2017-Oct-10 05:31N 37°01' W 008°60'5 9.7
2017-Oct-10 05:00N 37°06' W 008°59'510.1
2017-Oct-10 04:30N 37°11' W 008°57'4 8.8
2017-Oct-10 04:00N 37°14' W 008°54'0 0.6
2017-Oct-10 03:30N 37°15' W 008°54'0 0.2
2017-Oct-10 03:00N 37°15' W 008°54'0 0.2
2017-Oct-10 02:26N 37°15' W 008°54'3 6.6
2017-Oct-10 02:00N 37°12' W 008°56'  

Dump ship's entire track history